AFL527 UWWW-UWKD
Flight info
| Callsign | AFL527 |
|---|---|
| Flight time | 0h 36m |
| Altitude | 22000 |
| Route | ODRUT T793 TONSI |
| Aircraft | A21N/M-SDE2E3FGHIRWXY/LB1 |
Departure
| Time | 2026-05-07 15:58 |
|---|---|
| Airport | Kurumoch International Airport (UWWW) |
Arrival
| Time | 2026-05-07 16:34 |
|---|---|
| Airport | Kazan International Airport (UWKD) |
| Time | Latitude | Longitude | Altitude | Speed | Heading |
|---|---|---|---|---|---|
| 2026-05-07 15:40 | 53.51153 | 50.15883 | 422 ft | 0 kts | 331° |
| 2026-05-07 15:47 | 53.51152 | 50.15884 | 422 ft | 1 kts | 331° |
| 2026-05-07 15:47 | 53.51139 | 50.15896 | 422 ft | 2 kts | 331° |
| 2026-05-07 15:48 | 53.51126 | 50.15908 | 422 ft | 2 kts | 331° |
| 2026-05-07 15:48 | 53.51111 | 50.15916 | 422 ft | 2 kts | 358° |
| 2026-05-07 15:48 | 53.51096 | 50.15913 | 422 ft | 2 kts | 17° |
| 2026-05-07 15:48 | 53.51083 | 50.15903 | 422 ft | 2 kts | 38° |
| 2026-05-07 15:49 | 53.51073 | 50.15886 | 423 ft | 1 kts | 57° |
| 2026-05-07 15:49 | 53.51070 | 50.15876 | 423 ft | 1 kts | 62° |
| 2026-05-07 15:49 | 53.51069 | 50.15873 | 423 ft | 0 kts | 61° |
| 2026-05-07 15:51 | 53.51069 | 50.15875 | 423 ft | 0 kts | 61° |
| 2026-05-07 15:51 | 53.51079 | 50.15906 | 422 ft | 5 kts | 61° |
| 2026-05-07 15:51 | 53.51100 | 50.15969 | 422 ft | 6 kts | 61° |
| 2026-05-07 15:51 | 53.51125 | 50.16047 | 421 ft | 9 kts | 61° |
| 2026-05-07 15:52 | 53.51154 | 50.16157 | 419 ft | 11 kts | 80° |
| 2026-05-07 15:52 | 53.51121 | 50.16285 | 418 ft | 12 kts | 124° |
| 2026-05-07 15:52 | 53.51071 | 50.16418 | 417 ft | 14 kts | 122° |
| 2026-05-07 15:52 | 53.51015 | 50.16569 | 414 ft | 16 kts | 121° |
| 2026-05-07 15:53 | 53.50950 | 50.16746 | 409 ft | 19 kts | 121° |
| 2026-05-07 15:53 | 53.50876 | 50.16947 | 404 ft | 21 kts | 122° |
| 2026-05-07 15:53 | 53.50750 | 50.17084 | 399 ft | 22 kts | 161° |
| 2026-05-07 15:53 | 53.50595 | 50.17175 | 394 ft | 24 kts | 160° |
| 2026-05-07 15:54 | 53.50433 | 50.17270 | 390 ft | 24 kts | 160° |
| 2026-05-07 15:54 | 53.50270 | 50.17373 | 387 ft | 24 kts | 161° |
| 2026-05-07 15:54 | 53.50106 | 50.17469 | 385 ft | 24 kts | 160° |
| 2026-05-07 15:54 | 53.49946 | 50.17564 | 384 ft | 24 kts | 160° |
| 2026-05-07 15:55 | 53.49788 | 50.17657 | 384 ft | 23 kts | 160° |
| 2026-05-07 15:55 | 53.49639 | 50.17748 | 385 ft | 22 kts | 160° |
| 2026-05-07 15:55 | 53.49500 | 50.17833 | 386 ft | 21 kts | 160° |
| 2026-05-07 15:55 | 53.49373 | 50.17909 | 389 ft | 17 kts | 158° |
| 2026-05-07 15:56 | 53.49293 | 50.18023 | 389 ft | 15 kts | 115° |
| 2026-05-07 15:56 | 53.49298 | 50.18193 | 386 ft | 16 kts | 72° |
| 2026-05-07 15:56 | 53.49386 | 50.18320 | 378 ft | 18 kts | 342° |
| 2026-05-07 15:56 | 53.49430 | 50.18292 | 378 ft | 0 kts | 341° |
| 2026-05-07 15:57 | 53.49566 | 50.18214 | 377 ft | 63 kts | 340° |
| 2026-05-07 15:57 | 53.50270 | 50.17801 | 377 ft | 147 kts | 339° |
| 2026-05-07 15:57 | 53.51394 | 50.17128 | 626 ft | 191 kts | 340° |
| 2026-05-07 15:58 | 53.52717 | 50.16346 | 1303 ft | 213 kts | 340° |
| 2026-05-07 15:58 | 53.54198 | 50.15462 | 2008 ft | 242 kts | 340° |
| 2026-05-07 15:58 | 53.55760 | 50.14537 | 2895 ft | 241 kts | 341° |
| 2026-05-07 15:58 | 53.56644 | 50.14028 | 3473 ft | 236 kts | 341° |
| 2026-05-07 15:59 | 53.58074 | 50.13205 | 4243 ft | 236 kts | 341° |
| 2026-05-07 15:59 | 53.59675 | 50.12733 | 4945 ft | 240 kts | 8° |
| 2026-05-07 15:59 | 53.61151 | 50.13879 | 5665 ft | 241 kts | 44° |
| 2026-05-07 15:59 | 53.61991 | 50.16222 | 6162 ft | 251 kts | 71° |
| 2026-05-07 16:00 | 53.62119 | 50.16880 | 6279 ft | 255 kts | 72° |
| 2026-05-07 16:00 | 53.62468 | 50.18732 | 6554 ft | 265 kts | 72° |
| 2026-05-07 16:00 | 53.62857 | 50.20736 | 6873 ft | 274 kts | 71° |
| 2026-05-07 16:00 | 53.63470 | 50.23776 | 7547 ft | 279 kts | 71° |
| 2026-05-07 16:01 | 53.64109 | 50.26859 | 8290 ft | 282 kts | 70° |
| 2026-05-07 16:01 | 53.64660 | 50.30015 | 8985 ft | 285 kts | 83° |
| 2026-05-07 16:01 | 53.64444 | 50.33293 | 9663 ft | 287 kts | 110° |
| 2026-05-07 16:01 | 53.63364 | 50.36101 | 10344 ft | 289 kts | 136° |
| 2026-05-07 16:02 | 53.61649 | 50.37877 | 10731 ft | 302 kts | 159° |
| 2026-05-07 16:02 | 53.59607 | 50.39063 | 11050 ft | 318 kts | 161° |
| 2026-05-07 16:02 | 53.57475 | 50.40263 | 11337 ft | 334 kts | 161° |
| 2026-05-07 16:02 | 53.55239 | 50.41537 | 11610 ft | 349 kts | 162° |
| 2026-05-07 16:03 | 53.52798 | 50.42079 | 11839 ft | 363 kts | 183° |
| 2026-05-07 16:03 | 53.50298 | 50.41023 | 12148 ft | 374 kts | 204° |
| 2026-05-07 16:03 | 53.48196 | 50.38536 | 12649 ft | 378 kts | 225° |
| 2026-05-07 16:03 | 53.46670 | 50.34931 | 13243 ft | 380 kts | 239° |
| 2026-05-07 16:04 | 53.45368 | 50.31119 | 13800 ft | 383 kts | 240° |
| 2026-05-07 16:04 | 53.44036 | 50.27200 | 14336 ft | 386 kts | 240° |
| 2026-05-07 16:04 | 53.42702 | 50.23331 | 14860 ft | 389 kts | 239° |
| 2026-05-07 16:04 | 53.41355 | 50.19426 | 15374 ft | 392 kts | 242° |
| 2026-05-07 16:05 | 53.40439 | 50.15128 | 15821 ft | 396 kts | 260° |
| 2026-05-07 16:05 | 53.40413 | 50.10547 | 16311 ft | 398 kts | 278° |
| 2026-05-07 16:05 | 53.41273 | 50.06178 | 16787 ft | 400 kts | 297° |
| 2026-05-07 16:05 | 53.42964 | 50.02446 | 17241 ft | 403 kts | 316° |
| 2026-05-07 16:06 | 53.45269 | 49.99859 | 17673 ft | 406 kts | 335° |
| 2026-05-07 16:06 | 53.47924 | 49.98181 | 18155 ft | 407 kts | 341° |
| 2026-05-07 16:06 | 53.50606 | 49.96636 | 18570 ft | 411 kts | 341° |
| 2026-05-07 16:06 | 53.53294 | 49.95085 | 18983 ft | 414 kts | 341° |
| 2026-05-07 16:07 | 53.56005 | 49.93494 | 19398 ft | 416 kts | 341° |
| 2026-05-07 16:07 | 53.58741 | 49.91864 | 19801 ft | 419 kts | 340° |
| 2026-05-07 16:07 | 53.61472 | 49.90223 | 19974 ft | 420 kts | 340° |
| 2026-05-07 16:07 | 53.64232 | 49.88555 | 19975 ft | 420 kts | 340° |
| 2026-05-07 16:08 | 53.66974 | 49.86891 | 19979 ft | 420 kts | 340° |
| 2026-05-07 16:08 | 53.69700 | 49.85234 | 19981 ft | 419 kts | 340° |
| 2026-05-07 16:08 | 53.72479 | 49.83905 | 19977 ft | 419 kts | 349° |
| 2026-05-07 16:08 | 53.75394 | 49.83506 | 19979 ft | 419 kts | 1° |
| 2026-05-07 16:09 | 53.78286 | 49.84095 | 19981 ft | 419 kts | 13° |
| 2026-05-07 16:09 | 53.81066 | 49.85347 | 19984 ft | 420 kts | 16° |
| 2026-05-07 16:09 | 53.83868 | 49.86754 | 19984 ft | 419 kts | 17° |
| 2026-05-07 16:09 | 53.86657 | 49.88175 | 19984 ft | 419 kts | 17° |
| 2026-05-07 16:10 | 53.89447 | 49.89587 | 19983 ft | 419 kts | 17° |
| 2026-05-07 16:10 | 53.92234 | 49.90986 | 19983 ft | 419 kts | 17° |
| 2026-05-07 16:10 | 53.95039 | 49.92385 | 19983 ft | 419 kts | 16° |
| 2026-05-07 16:10 | 53.97829 | 49.93774 | 19983 ft | 419 kts | 16° |
| 2026-05-07 16:11 | 54.00614 | 49.95160 | 19978 ft | 414 kts | 16° |
| 2026-05-07 16:11 | 54.03286 | 49.96489 | 19976 ft | 395 kts | 16° |
| 2026-05-07 16:11 | 54.05867 | 49.97775 | 19974 ft | 376 kts | 16° |
| 2026-05-07 16:11 | 54.08320 | 49.98999 | 19976 ft | 362 kts | 16° |
| 2026-05-07 16:12 | 54.10708 | 50.00194 | 19980 ft | 361 kts | 16° |
| 2026-05-07 16:12 | 54.13126 | 50.01398 | 19982 ft | 361 kts | 16° |
| 2026-05-07 16:12 | 54.15537 | 50.02599 | 19983 ft | 361 kts | 16° |
| 2026-05-07 16:12 | 54.17938 | 50.03799 | 19983 ft | 361 kts | 16° |
| 2026-05-07 16:13 | 54.20357 | 50.04857 | 19969 ft | 361 kts | 7° |
| 2026-05-07 16:13 | 54.22832 | 50.04630 | 19972 ft | 360 kts | 345° |
| 2026-05-07 16:13 | 54.25092 | 50.02884 | 19978 ft | 360 kts | 324° |
| 2026-05-07 16:13 | 54.26906 | 49.99939 | 19994 ft | 361 kts | 311° |
| 2026-05-07 16:14 | 54.28538 | 49.96728 | 19987 ft | 361 kts | 310° |
| 2026-05-07 16:14 | 54.30183 | 49.93455 | 19985 ft | 361 kts | 311° |
| 2026-05-07 16:14 | 54.31833 | 49.90209 | 19984 ft | 361 kts | 311° |
| 2026-05-07 16:14 | 54.33477 | 49.87009 | 19983 ft | 361 kts | 312° |
| 2026-05-07 16:15 | 54.35336 | 49.84139 | 19973 ft | 360 kts | 327° |
| 2026-05-07 16:15 | 54.37585 | 49.82289 | 19977 ft | 360 kts | 343° |
| 2026-05-07 16:15 | 54.40009 | 49.81446 | 19986 ft | 361 kts | 352° |
| 2026-05-07 16:15 | 54.42484 | 49.80868 | 19984 ft | 361 kts | 353° |
| 2026-05-07 16:16 | 54.44991 | 49.80314 | 19983 ft | 361 kts | 353° |
| 2026-05-07 16:16 | 54.47435 | 49.79763 | 19980 ft | 356 kts | 352° |
| 2026-05-07 16:16 | 54.49896 | 49.79191 | 19982 ft | 355 kts | 352° |
| 2026-05-07 16:16 | 54.52338 | 49.78614 | 19982 ft | 355 kts | 352° |
| 2026-05-07 16:17 | 54.54761 | 49.78034 | 19983 ft | 355 kts | 352° |
| 2026-05-07 16:17 | 54.57188 | 49.77449 | 19983 ft | 355 kts | 352° |
| 2026-05-07 16:17 | 54.59647 | 49.76855 | 19983 ft | 355 kts | 352° |
| 2026-05-07 16:17 | 54.62063 | 49.76270 | 19983 ft | 355 kts | 352° |
| 2026-05-07 16:18 | 54.64467 | 49.75687 | 19952 ft | 342 kts | 352° |
| 2026-05-07 16:18 | 54.66796 | 49.75243 | 19757 ft | 332 kts | 356° |
| 2026-05-07 16:18 | 54.69054 | 49.75052 | 19555 ft | 323 kts | 358° |
| 2026-05-07 16:18 | 54.71272 | 49.74908 | 19222 ft | 319 kts | 358° |
| 2026-05-07 16:19 | 54.73476 | 49.74758 | 18813 ft | 317 kts | 358° |
| 2026-05-07 16:19 | 54.75690 | 49.74593 | 18224 ft | 322 kts | 358° |
| 2026-05-07 16:19 | 54.77920 | 49.74416 | 17712 ft | 324 kts | 358° |
| 2026-05-07 16:19 | 54.80147 | 49.74232 | 17307 ft | 321 kts | 357° |
| 2026-05-07 16:20 | 54.82370 | 49.74044 | 16912 ft | 319 kts | 357° |
| 2026-05-07 16:20 | 54.84563 | 49.73856 | 16516 ft | 317 kts | 357° |
| 2026-05-07 16:20 | 54.86792 | 49.73663 | 16020 ft | 319 kts | 357° |
| 2026-05-07 16:20 | 54.88991 | 49.73472 | 15475 ft | 322 kts | 357° |
| 2026-05-07 16:21 | 54.91226 | 49.73277 | 14927 ft | 325 kts | 357° |
| 2026-05-07 16:21 | 54.93495 | 49.73079 | 14375 ft | 327 kts | 357° |
| 2026-05-07 16:21 | 54.95763 | 49.72881 | 13829 ft | 329 kts | 357° |
| 2026-05-07 16:21 | 54.98038 | 49.72681 | 13282 ft | 331 kts | 357° |
| 2026-05-07 16:22 | 55.00330 | 49.72479 | 12734 ft | 332 kts | 357° |
| 2026-05-07 16:22 | 55.02634 | 49.72277 | 12184 ft | 333 kts | 357° |
| 2026-05-07 16:22 | 55.04929 | 49.72075 | 11638 ft | 333 kts | 357° |
| 2026-05-07 16:22 | 55.07258 | 49.71869 | 11116 ft | 332 kts | 357° |
| 2026-05-07 16:23 | 55.09544 | 49.71668 | 10444 ft | 337 kts | 357° |
| 2026-05-07 16:23 | 55.11886 | 49.71461 | 9762 ft | 340 kts | 357° |
| 2026-05-07 16:23 | 55.14225 | 49.71255 | 9356 ft | 333 kts | 357° |
| 2026-05-07 16:23 | 55.16504 | 49.71055 | 9053 ft | 318 kts | 357° |
| 2026-05-07 16:24 | 55.18619 | 49.70868 | 8772 ft | 298 kts | 357° |
| 2026-05-07 16:24 | 55.20628 | 49.70692 | 8490 ft | 282 kts | 357° |
| 2026-05-07 16:24 | 55.22569 | 49.70521 | 8217 ft | 280 kts | 357° |
| 2026-05-07 16:24 | 55.24512 | 49.70349 | 7941 ft | 279 kts | 357° |
| 2026-05-07 16:25 | 55.26434 | 49.70179 | 7572 ft | 275 kts | 357° |
| 2026-05-07 16:25 | 55.28347 | 49.70010 | 6951 ft | 275 kts | 357° |
| 2026-05-07 16:25 | 55.30222 | 49.69843 | 6331 ft | 273 kts | 357° |
| 2026-05-07 16:25 | 55.32100 | 49.69677 | 5705 ft | 270 kts | 357° |
| 2026-05-07 16:26 | 55.33957 | 49.69511 | 5080 ft | 268 kts | 357° |
| 2026-05-07 16:26 | 55.35801 | 49.69347 | 4454 ft | 265 kts | 357° |
| 2026-05-07 16:26 | 55.37613 | 49.69186 | 3884 ft | 261 kts | 357° |
| 2026-05-07 16:26 | 55.38803 | 49.69079 | 3892 ft | 249 kts | 357° |
| 2026-05-07 16:27 | 55.41049 | 49.68879 | 3970 ft | 232 kts | 357° |
| 2026-05-07 16:27 | 55.42596 | 49.68740 | 3994 ft | 222 kts | 357° |
| 2026-05-07 16:27 | 55.44127 | 49.68463 | 3940 ft | 221 kts | 342° |
| 2026-05-07 16:27 | 55.45370 | 49.67052 | 3877 ft | 204 kts | 313° |
| 2026-05-07 16:28 | 55.46190 | 49.65206 | 3838 ft | 185 kts | 306° |
| 2026-05-07 16:28 | 55.46919 | 49.63404 | 3718 ft | 177 kts | 305° |
| 2026-05-07 16:28 | 55.47611 | 49.61642 | 3519 ft | 171 kts | 304° |
| 2026-05-07 16:28 | 55.48241 | 49.60015 | 3402 ft | 158 kts | 304° |
| 2026-05-07 16:29 | 55.48842 | 49.58454 | 3301 ft | 149 kts | 304° |
| 2026-05-07 16:29 | 55.49416 | 49.56960 | 3238 ft | 147 kts | 304° |
| 2026-05-07 16:29 | 55.49994 | 49.55452 | 3092 ft | 148 kts | 304° |
| 2026-05-07 16:29 | 55.50557 | 49.53981 | 2837 ft | 146 kts | 304° |
| 2026-05-07 16:30 | 55.51128 | 49.52493 | 2730 ft | 145 kts | 304° |
| 2026-05-07 16:30 | 55.51697 | 49.51010 | 2730 ft | 146 kts | 304° |
| 2026-05-07 16:30 | 55.52258 | 49.49549 | 2725 ft | 146 kts | 304° |
| 2026-05-07 16:30 | 55.52828 | 49.48069 | 2723 ft | 146 kts | 304° |
| 2026-05-07 16:31 | 55.53399 | 49.46585 | 2597 ft | 145 kts | 304° |
| 2026-05-07 16:31 | 55.53970 | 49.45102 | 2426 ft | 145 kts | 304° |
| 2026-05-07 16:31 | 55.54535 | 49.43635 | 2237 ft | 147 kts | 304° |
| 2026-05-07 16:31 | 55.55108 | 49.42150 | 2039 ft | 147 kts | 304° |
| 2026-05-07 16:32 | 55.55680 | 49.40667 | 1842 ft | 146 kts | 304° |
| 2026-05-07 16:32 | 55.56252 | 49.39185 | 1645 ft | 146 kts | 304° |
| 2026-05-07 16:32 | 55.56828 | 49.37694 | 1448 ft | 145 kts | 304° |
| 2026-05-07 16:32 | 55.57394 | 49.36231 | 1255 ft | 145 kts | 304° |
| 2026-05-07 16:33 | 55.57957 | 49.34772 | 1063 ft | 145 kts | 304° |
| 2026-05-07 16:33 | 55.58522 | 49.33306 | 871 ft | 144 kts | 304° |
| 2026-05-07 16:33 | 55.59088 | 49.31840 | 679 ft | 144 kts | 304° |
| 2026-05-07 16:33 | 55.59651 | 49.30387 | 489 ft | 143 kts | 304° |
| 2026-05-07 16:34 | 55.60184 | 49.29014 | 400 ft | 120 kts | 304° |
| 2026-05-07 16:34 | 55.60559 | 49.28046 | 388 ft | 70 kts | 304° |
| 2026-05-07 16:34 | 55.60767 | 49.27511 | 380 ft | 47 kts | 304° |
| 2026-05-07 16:34 | 55.60926 | 49.27100 | 371 ft | 33 kts | 304° |
| 2026-05-07 16:35 | 55.61040 | 49.26822 | 366 ft | 24 kts | 326° |
| 2026-05-07 16:35 | 55.61156 | 49.26847 | 366 ft | 3 kts | 33° |
| 2026-05-07 16:35 | 55.61173 | 49.26867 | 367 ft | 2 kts | 34° |
| 2026-05-07 16:35 | 55.61187 | 49.26886 | 367 ft | 2 kts | 39° |
| 2026-05-07 16:36 | 55.61196 | 49.26902 | 367 ft | 1 kts | 50° |
| 2026-05-07 16:36 | 55.61208 | 49.26953 | 369 ft | 8 kts | 88° |
| 2026-05-07 16:36 | 55.61196 | 49.27049 | 370 ft | 7 kts | 116° |
| 2026-05-07 16:36 | 55.61173 | 49.27121 | 372 ft | 6 kts | 123° |
| 2026-05-07 16:37 | 55.61143 | 49.27200 | 373 ft | 8 kts | 122° |
| 2026-05-07 16:37 | 55.61104 | 49.27304 | 375 ft | 14 kts | 126° |
| 2026-05-07 16:37 | 55.61048 | 49.27446 | 378 ft | 13 kts | 124° |
| 2026-05-07 16:37 | 55.61000 | 49.27572 | 381 ft | 12 kts | 124° |
| 2026-05-07 16:38 | 55.60947 | 49.27707 | 383 ft | 14 kts | 124° |
| 2026-05-07 16:38 | 55.60885 | 49.27864 | 388 ft | 15 kts | 125° |
| 2026-05-07 16:38 | 55.60823 | 49.28022 | 393 ft | 16 kts | 124° |
| 2026-05-07 16:38 | 55.60751 | 49.28208 | 395 ft | 19 kts | 123° |
| 2026-05-07 16:39 | 55.60668 | 49.28421 | 399 ft | 20 kts | 124° |
| 2026-05-07 16:39 | 55.60598 | 49.28633 | 402 ft | 20 kts | 109° |
| 2026-05-07 16:39 | 55.60584 | 49.28859 | 404 ft | 18 kts | 95° |
| 2026-05-07 16:39 | 55.60582 | 49.29090 | 406 ft | 18 kts | 74° |
| 2026-05-07 16:40 | 55.60674 | 49.29256 | 407 ft | 18 kts | 32° |
| 2026-05-07 16:40 | 55.60754 | 49.29358 | 407 ft | 13 kts | 35° |
| 2026-05-07 16:40 | 55.60811 | 49.29452 | 406 ft | 11 kts | 77° |
| 2026-05-07 16:40 | 55.60780 | 49.29566 | 408 ft | 9 kts | 123° |
| 2026-05-07 16:41 | 55.60745 | 49.29657 | 410 ft | 7 kts | 124° |
| 2026-05-07 16:41 | 55.60712 | 49.29738 | 411 ft | 8 kts | 126° |
| 2026-05-07 16:41 | 55.60693 | 49.29814 | 412 ft | 6 kts | 86° |
| 2026-05-07 16:41 | 55.60721 | 49.29875 | 411 ft | 3 kts | 31° |
| 2026-05-07 16:42 | 55.60728 | 49.29884 | 411 ft | 0 kts | 33° |